Time;durP1;ratioP1;P1;durP2;ratioP2;P2;SDS_P1;SDS_P2;PMS_P1;PMS_P2;Temp;Humidity;BMP_temperature;BMP_pressure;BME280_temperature;BME280_humidity;BME280_pressure;Samples;Min_cycle;Max_cycle;Signal;HPM_P1;HPM_P2
2022/10/25 00:00:42;;;;;;;18.88;5.40;;;12.00;13.30;;;;;;5033658;28;20103;-77
2022/10/25 00:03:10;;;;;;;23.90;6.28;;;12.10;14.60;;;;;;5033309;28;20113;-78
2022/10/25 00:05:36;;;;;;;24.90;6.00;;;12.10;16.60;;;;;;5033570;28;20580;-77
2022/10/25 00:08:03;;;;;;;20.50;5.47;;;12.00;19.20;;;;;;5033360;28;20029;-77
2022/10/25 00:10:28;;;;;;;17.60;6.00;;;12.00;19.90;;;;;;5033416;28;20026;-77
2022/10/25 00:12:54;;;;;;;22.40;6.43;;;12.10;21.20;;;;;;5033484;28;20056;-77
2022/10/25 00:15:20;;;;;;;22.33;6.47;;;12.10;22.20;;;;;;5033298;28;20104;-77
2022/10/25 00:17:45;;;;;;;24.38;6.80;;;12.00;22.20;;;;;;5033206;28;20440;-77
2022/10/25 00:20:12;;;;;;;28.88;7.60;;;11.90;21.80;;;;;;5033212;28;20380;-77
2022/10/25 00:22:38;;;;;;;22.63;7.53;;;11.90;19.60;;;;;;5033564;28;20109;-77
2022/10/25 00:25:06;;;;;;;22.17;7.50;;;12.00;18.20;;;;;;5034571;28;20112;-77
2022/10/25 00:27:32;;;;;;;20.90;8.98;;;12.10;16.40;;;;;;5034380;28;20033;-78
2022/10/25 00:30:00;;;;;;;28.45;7.70;;;12.40;17.80;;;;;;5034368;28;20377;-77
2022/10/25 00:32:26;;;;;;;27.10;8.82;;;12.20;19.10;;;;;;5034742;28;20057;-78
2022/10/25 00:34:52;;;;;;;26.67;8.57;;;12.20;21.80;;;;;;5033820;28;20087;-78
2022/10/25 00:37:17;;;;;;;29.80;8.75;;;12.20;21.60;;;;;;5034109;28;20116;-78
2022/10/25 00:39:45;;;;;;;27.13;8.90;;;12.10;21.50;;;;;;5034183;28;20049;-78
2022/10/25 00:42:17;;;;;;;30.13;9.27;;;12.20;18.40;;;;;;5034007;28;20029;-77
2022/10/25 00:44:57;;;;;;;25.25;8.82;;;12.20;20.10;;;;;;5034047;28;20038;-77
2022/10/25 00:47:39;;;;;;;22.92;8.07;;;12.10;20.50;;;;;;5033846;28;20033;-77
2022/10/25 00:50:20;;;;;;;22.63;8.38;;;12.10;20.50;;;;;;5034165;28;20032;-77
2022/10/25 00:52:49;;;;;;;25.85;8.88;;;12.00;19.30;;;;;;5033815;28;20032;-77
2022/10/25 00:55:17;;;;;;;25.60;8.50;;;12.00;12.70;;;;;;5033872;28;20018;-77
2022/10/25 00:57:52;;;;;;;25.70;8.27;;;12.00;11.60;;;;;;5033697;28;20412;-78
2022/10/25 01:00:17;;;;;;;26.27;8.75;;;12.10;9.70;;;;;;5014012;28;20030;-78
2022/10/25 01:02:43;;;;;;;28.58;8.48;;;12.20;10.00;;;;;;5013374;28;20576;-78
2022/10/25 01:05:10;;;;;;;28.77;8.73;;;12.30;10.10;;;;;;5014178;28;20072;-78
2022/10/25 01:07:36;;;;;;;31.92;8.73;;;12.40;11.20;;;;;;5013737;28;20022;-77
2022/10/25 01:10:01;;;;;;;34.78;8.55;;;12.40;14.10;;;;;;5013941;28;20018;-77
2022/10/25 01:12:27;;;;;;;24.15;7.90;;;12.30;17.70;;;;;;5013822;28;20547;-77
2022/10/25 01:14:54;;;;;;;23.98;7.57;;;12.20;15.10;;;;;;5021110;28;20455;-77
2022/10/25 01:17:48;;;;;;;26.08;7.55;;;12.20;11.40;;;;;;5033458;28;20017;-77
2022/10/25 01:20:22;;;;;;;25.30;7.32;;;12.20;6.50;;;;;;5033535;28;20056;-77
2022/10/25 01:23:08;;;;;;;32.85;8.13;;;12.30;8.00;;;;;;5033418;28;20508;-77
2022/10/25 01:26:09;;;;;;;23.80;7.50;;;12.40;10.60;;;;;;5033532;28;20033;-78
2022/10/25 01:29:05;;;;;;;21.17;7.05;;;12.30;14.70;;;;;;5033530;28;20096;-78
2022/10/25 01:31:47;;;;;;;22.58;6.93;;;12.20;11.10;;;;;;5013785;28;20104;-78
2022/10/25 01:34:22;;;;;;;30.25;7.22;;;12.10;6.30;;;;;;5013274;28;20474;-78
2022/10/25 01:37:18;;;;;;;19.83;7.05;;;12.20;4.60;;;;;;5013702;28;20034;-78
2022/10/25 01:40:01;;;;;;;23.77;7.97;;;12.30;6.50;;;;;;5013629;28;20084;-77
2022/10/25 01:42:29;;;;;;;23.02;7.90;;;12.50;10.40;;;;;;5013773;28;20022;-77
2022/10/25 01:45:20;;;;;;;24.45;7.80;;;12.60;13.60;;;;;;5026585;28;20373;-78
2022/10/25 01:48:00;;;;;;;22.58;7.15;;;12.70;16.70;;;;;;5013662;28;20045;-78
2022/10/25 01:50:29;;;;;;;20.30;7.90;;;12.80;21.20;;;;;;5013592;28;20045;-77
2022/10/25 01:52:55;;;;;;;29.02;8.40;;;12.80;22.40;;;;;;5013477;28;20442;-77
2022/10/25 01:55:26;;;;;;;25.27;8.18;;;13.00;1.00;;;;;;5013403;28;20030;-78
2022/10/25 01:58:07;;;;;;;28.30;8.32;;;13.00;1.00;;;;;;5013465;28;20026;-77
2022/10/25 02:00:43;;;;;;;20.75;8.70;;;12.90;1.00;;;;;;5013334;28;20057;-78
2022/10/25 02:03:14;;;;;;;29.35;9.60;;;12.90;1.00;;;;;;5013397;28;20022;-77
2022/10/25 02:05:58;;;;;;;23.23;8.70;;;12.80;15.60;;;;;;5013453;28;20026;-77
2022/10/25 02:08:56;;;;;;;26.08;8.65;;;12.70;24.20;;;;;;5013256;28;20034;-77
2022/10/25 02:11:23;;;;;;;24.48;8.05;;;12.70;29.60;;;;;;5013430;28;20101;-78
2022/10/25 02:14:04;;;;;;;21.52;8.35;;;12.60;29.10;;;;;;5013801;28;20034;-78
2022/10/25 02:16:44;;;;;;;21.40;7.90;;;12.50;30.00;;;;;;5017157;28;20046;-78
2022/10/25 02:19:17;;;;;;;21.58;7.82;;;12.50;28.40;;;;;;5017063;28;20096;-78
2022/10/25 02:21:46;;;;;;;26.83;7.18;;;12.60;25.80;;;;;;5016972;28;20022;-78
2022/10/25 02:24:16;;;;;;;17.73;6.72;;;12.60;27.70;;;;;;5016904;28;20034;-78
2022/10/25 02:26:44;;;;;;;14.43;5.85;;;12.60;27.40;;;;;;5017103;28;20037;-78
2022/10/25 02:29:12;;;;;;;21.55;5.78;;;12.50;27.40;;;;;;5016805;28;20112;-78
2022/10/25 02:31:38;;;;;;;16.83;5.18;;;12.60;25.10;;;;;;5016786;28;20101;-78
2022/10/25 02:34:04;;;;;;;18.08;4.88;;;12.60;25.40;;;;;;5016667;28;20114;-78
2022/10/25 02:36:30;;;;;;;16.30;4.40;;;12.50;25.30;;;;;;5027097;28;20547;-77
2022/10/25 02:38:58;;;;;;;21.55;4.43;;;12.40;26.50;;;;;;5036493;28;20030;-78
2022/10/25 02:41:23;;;;;;;20.45;4.57;;;12.40;24.70;;;;;;5036262;28;20484;-77
2022/10/25 02:43:49;;;;;;;15.27;4.30;;;12.40;21.60;;;;;;5036007;28;20026;-78
2022/10/25 02:46:18;;;;;;;13.57;4.47;;;12.40;18.90;;;;;;5036145;28;20427;-78
2022/10/25 02:48:44;;;;;;;18.95;4.18;;;12.50;19.20;;;;;;5036144;28;20037;-78
2022/10/25 02:51:11;;;;;;;20.70;4.28;;;12.50;21.50;;;;;;5036213;28;20029;-78
2022/10/25 02:53:37;;;;;;;17.80;4.70;;;12.40;22.50;;;;;;5036059;28;20024;-77
2022/10/25 02:56:06;;;;;;;20.50;4.35;;;12.50;20.40;;;;;;5036044;28;20063;-77
2022/10/25 02:58:34;;;;;;;27.70;5.13;;;12.30;22.10;;;;;;5036164;28;20478;-78
2022/10/25 03:01:00;;;;;;;20.20;3.88;;;12.30;19.60;;;;;;5035972;28;20037;-78
2022/10/25 03:03:27;;;;;;;21.15;3.97;;;12.20;18.80;;;;;;5035796;28;20021;-78
2022/10/25 03:05:53;;;;;;;33.30;4.43;;;12.10;13.70;;;;;;5035916;28;20087;-78
2022/10/25 03:08:19;;;;;;;16.55;3.83;;;12.10;9.70;;;;;;5035953;28;20025;-78
2022/10/25 03:10:44;;;;;;;21.45;3.60;;;12.00;7.00;;;;;;5035787;28;20496;-77
2022/10/25 03:13:10;;;;;;;18.00;3.20;;;11.90;5.90;;;;;;5035908;28;20061;-78
2022/10/25 03:15:36;;;;;;;26.33;3.63;;;11.90;3.70;;;;;;5035700;28;20028;-78
2022/10/25 03:18:01;;;;;;;14.20;2.70;;;11.90;1.10;;;;;;5035842;28;20026;-77
2022/10/25 03:20:27;;;;;;;24.05;2.95;;;11.90;1.00;;;;;;5035647;28;20029;-77
2022/10/25 03:22:52;;;;;;;19.15;3.60;;;11.90;1.00;;;;;;5035617;28;20108;-78
2022/10/25 03:25:18;;;;;;;15.38;3.17;;;12.00;1.00;;;;;;5035161;28;20044;-78
2022/10/25 03:27:44;;;;;;;20.70;2.90;;;12.00;1.00;;;;;;5035600;28;20028;-78
2022/10/25 03:30:11;;;;;;;23.27;4.13;;;12.00;1.60;;;;;;5035404;28;20017;-78
2022/10/25 03:32:36;;;;;;;16.08;3.53;;;12.00;2.50;;;;;;5035480;28;20033;-77
2022/10/25 03:35:02;;;;;;;17.20;2.70;;;11.80;4.20;;;;;;5035112;28;20055;-77
2022/10/25 03:37:28;;;;;;;16.08;2.83;;;11.70;3.20;;;;;;5035410;28;20032;-78
2022/10/25 03:39:53;;;;;;;18.60;2.42;;;11.80;1.00;;;;;;5035337;28;20021;-77
2022/10/25 03:42:19;;;;;;;13.65;2.55;;;11.80;1.00;;;;;;5035071;28;20021;-78
2022/10/25 03:44:44;;;;;;;22.05;2.60;;;11.70;1.00;;;;;;5035189;28;20033;-78
2022/10/25 03:47:10;;;;;;;22.90;2.42;;;11.80;1.00;;;;;;5035173;28;20033;-78
2022/10/25 03:49:36;;;;;;;16.75;2.58;;;11.80;1.00;;;;;;5034950;28;20385;-78
2022/10/25 03:52:02;;;;;;;22.33;3.30;;;11.80;1.00;;;;;;5035006;28;20072;-78
2022/10/25 03:54:27;;;;;;;28.60;2.92;;;11.80;1.00;;;;;;5034673;28;20017;-77
2022/10/25 03:56:53;;;;;;;46.35;3.55;;;11.70;1.00;;;;;;5034773;28;20017;-78
2022/10/25 03:59:18;;;;;;;19.50;2.78;;;11.60;1.00;;;;;;5034863;28;20112;-78
2022/10/25 04:01:44;;;;;;;16.05;2.00;;;11.60;1.00;;;;;;5034777;28;20104;-78
2022/10/25 04:04:09;;;;;;;18.65;2.30;;;11.40;1.00;;;;;;5034943;28;20100;-78
2022/10/25 04:06:35;;;;;;;13.27;2.28;;;11.60;1.00;;;;;;5034708;28;20116;-78
2022/10/25 04:09:00;;;;;;;15.88;2.25;;;11.60;1.00;;;;;;5034744;28;20057;-78
2022/10/25 04:11:26;;;;;;;18.48;2.17;;;11.60;1.00;;;;;;5034545;28;20025;-78
2022/10/25 04:13:51;;;;;;;16.45;1.85;;;11.60;1.00;;;;;;5034679;28;20088;-77
2022/10/25 04:16:17;;;;;;;9.50;1.70;;;11.40;1.00;;;;;;5034478;28;20045;-78
2022/10/25 04:18:43;;;;;;;17.05;1.90;;;11.20;1.00;;;;;;5034509;28;20413;-78
2022/10/25 04:21:08;;;;;;;14.07;2.13;;;11.20;1.00;;;;;;5034501;28;20116;-77
2022/10/25 04:23:34;;;;;;;12.75;1.90;;;11.10;1.00;;;;;;5034307;28;20117;-78
2022/10/25 04:26:00;;;;;;;14.48;2.25;;;11.10;1.00;;;;;;5034274;28;20104;-78
2022/10/25 04:28:26;;;;;;;14.60;2.10;;;11.00;1.00;;;;;;5033966;28;20032;-78
2022/10/25 04:30:51;;;;;;;15.25;1.65;;;11.00;1.00;;;;;;5033971;28;20034;-78
2022/10/25 04:33:17;;;;;;;13.80;1.70;;;11.00;1.00;;;;;;5033898;28;20032;-78
2022/10/25 04:35:42;;;;;;;16.00;1.85;;;11.20;1.00;;;;;;5033429;28;20058;-77
2022/10/25 04:38:09;;;;;;;17.20;3.28;;;11.30;1.00;;;;;;5033238;28;20087;-78
2022/10/25 04:40:35;;;;;;;7.72;2.22;;;11.50;1.00;;;;;;5033965;28;20029;-78
2022/10/25 04:43:01;;;;;;;17.67;2.03;;;11.50;1.00;;;;;;5033326;28;20036;-78
2022/10/25 04:45:27;;;;;;;17.13;2.33;;;11.50;1.00;;;;;;5034017;28;20391;-78
2022/10/25 04:47:53;;;;;;;16.80;2.00;;;11.60;1.00;;;;;;5033960;28;20539;-78
2022/10/25 04:50:19;;;;;;;14.80;1.80;;;11.70;1.00;;;;;;5033873;28;20057;-78
2022/10/25 04:52:44;;;;;;;18.63;2.30;;;11.70;1.00;;;;;;5030851;28;20029;-78
2022/10/25 04:55:10;;;;;;;21.23;2.53;;;11.70;1.00;;;;;;5033969;28;20030;-78
2022/10/25 04:57:35;;;;;;;12.10;2.40;;;11.60;1.00;;;;;;5031652;28;20030;-78
2022/10/25 05:00:02;;;;;;;10.60;2.22;;;11.60;1.50;;;;;;5031481;28;20502;-78
2022/10/25 05:02:27;;;;;;;13.18;2.45;;;11.80;1.40;;;;;;5032123;28;20144;-78
2022/10/25 05:04:53;;;;;;;18.63;2.53;;;11.90;5.70;;;;;;5035578;28;20043;-78
2022/10/25 05:07:19;;;;;;;16.05;2.58;;;11.80;8.70;;;;;;5032151;28;20029;-78
2022/10/25 05:09:45;;;;;;;13.32;2.38;;;11.80;12.40;;;;;;5033869;28;20112;-78
2022/10/25 05:12:11;;;;;;;13.75;1.92;;;11.80;11.80;;;;;;5033593;28;20057;-78
2022/10/25 05:14:36;;;;;;;16.95;2.22;;;11.80;14.20;;;;;;5033777;28;20831;-78
2022/10/25 05:17:02;;;;;;;14.50;2.42;;;11.90;17.10;;;;;;5024452;28;20030;-78
2022/10/25 05:19:27;;;;;;;14.07;1.98;;;12.00;18.90;;;;;;5035554;28;20029;-78
2022/10/25 05:21:53;;;;;;;11.43;2.35;;;11.90;22.10;;;;;;5026525;28;20040;-78
2022/10/25 05:24:18;;;;;;;13.68;2.60;;;11.90;23.70;;;;;;5035165;28;20037;-78
2022/10/25 05:26:44;;;;;;;12.25;3.05;;;12.00;25.60;;;;;;5032046;28;20041;-78
2022/10/25 05:29:11;;;;;;;15.43;2.78;;;11.90;28.10;;;;;;5042376;28;20147;-78
2022/10/25 05:31:39;;;;;;;16.45;2.58;;;11.90;28.20;;;;;;5037298;28;20032;-78
2022/10/25 05:34:05;;;;;;;18.35;2.47;;;11.90;26.60;;;;;;5031696;28;20071;-79
2022/10/25 05:36:32;;;;;;;16.45;3.00;;;11.80;28.90;;;;;;5031708;28;20049;-78
2022/10/25 05:38:59;;;;;;;18.30;2.88;;;12.00;27.50;;;;;;5034321;28;20370;-78
2022/10/25 05:41:25;;;;;;;19.13;2.80;;;11.90;31.10;;;;;;5029671;28;20018;-78
2022/10/25 05:43:51;;;;;;;16.58;2.70;;;11.80;31.60;;;;;;5021778;28;20030;-78
2022/10/25 05:46:20;;;;;;;18.10;2.45;;;11.70;31.10;;;;;;5027335;28;20026;-78
2022/10/25 05:48:46;;;;;;;17.75;2.50;;;11.50;28.40;;;;;;5033269;28;20032;-78
2022/10/25 05:51:17;;;;;;;19.08;2.88;;;11.50;22.90;;;;;;5036722;28;20139;-78
2022/10/25 05:53:48;;;;;;;20.77;2.53;;;11.50;19.90;;;;;;5042016;28;20025;-78
2022/10/25 05:56:14;;;;;;;17.30;2.53;;;11.30;16.70;;;;;;5035605;28;20046;-78
2022/10/25 05:58:40;;;;;;;16.23;2.53;;;11.30;12.00;;;;;;5035421;28;20017;-78
2022/10/25 06:01:07;;;;;;;17.15;2.55;;;11.30;9.80;;;;;;5040280;28;20030;-78
2022/10/25 06:03:32;;;;;;;13.73;2.80;;;11.40;8.90;;;;;;5035873;28;20046;-78
2022/10/25 06:06:03;;;;;;;20.80;2.83;;;11.40;10.10;;;;;;5035419;28;20164;-78
2022/10/25 06:08:30;;;;;;;15.55;2.67;;;11.30;8.70;;;;;;5031754;28;20026;-78
2022/10/25 06:11:00;;;;;;;15.32;3.30;;;11.30;6.50;;;;;;5035987;28;20444;-78
2022/10/25 06:13:26;;;;;;;17.58;3.03;;;11.20;4.90;;;;;;5041636;28;20107;-77
2022/10/25 06:15:51;;;;;;;22.02;3.38;;;11.20;3.60;;;;;;5035843;28;20563;-78
2022/10/25 06:18:17;;;;;;;18.13;2.97;;;11.20;1.00;;;;;;5037365;28;20520;-78
2022/10/25 06:20:42;;;;;;;15.23;2.70;;;11.10;1.00;;;;;;5033565;28;20370;-77
2022/10/25 06:23:08;;;;;;;11.15;2.83;;;11.00;1.00;;;;;;5035233;28;20072;-77
2022/10/25 06:25:34;;;;;;;23.85;3.17;;;11.00;1.00;;;;;;5030887;28;20021;-78
2022/10/25 06:27:59;;;;;;;11.52;2.70;;;10.90;1.00;;;;;;5034037;28;20029;-78
2022/10/25 06:30:25;;;;;;;16.23;2.95;;;10.80;1.00;;;;;;5033600;28;20028;-77
2022/10/25 06:32:52;;;;;;;12.70;3.30;;;10.80;1.00;;;;;;5038746;28;20021;-78
2022/10/25 06:35:17;;;;;;;20.48;3.40;;;10.90;1.00;;;;;;5034490;28;20052;-78
2022/10/25 06:37:43;;;;;;;14.02;3.65;;;11.20;1.00;;;;;;5050338;28;20397;-78
2022/10/25 06:40:09;;;;;;;18.65;3.30;;;11.30;1.00;;;;;;5031541;28;20021;-77
2022/10/25 06:42:34;;;;;;;17.08;3.53;;;11.30;1.00;;;;;;5035152;28;20053;-78
2022/10/25 06:45:00;;;;;;;12.05;3.10;;;11.20;1.00;;;;;;5034744;28;20393;-78
2022/10/25 06:47:25;;;;;;;14.25;3.25;;;11.10;1.00;;;;;;5034599;28;20098;-77
2022/10/25 06:49:51;;;;;;;20.08;4.32;;;11.10;1.00;;;;;;5034122;28;20205;-78
2022/10/25 06:52:16;;;;;;;12.05;2.90;;;11.20;1.00;;;;;;5034497;28;20057;-78
2022/10/25 06:54:42;;;;;;;15.20;3.15;;;11.40;1.00;;;;;;5034946;28;20108;-77
2022/10/25 06:57:08;;;;;;;16.55;3.13;;;12.20;1.00;;;;;;5034517;28;20029;-77
2022/10/25 06:59:33;;;;;;;8.60;2.63;;;13.00;1.00;;;;;;5033735;28;20017;-77
2022/10/25 07:01:59;;;;;;;12.50;2.90;;;12.90;99.90;;;;;;5032275;28;20036;-77
2022/10/25 07:04:24;;;;;;;17.15;3.03;;;12.60;99.90;;;;;;5032587;28;20034;-77
2022/10/25 07:06:50;;;;;;;12.95;3.38;;;12.90;99.90;;;;;;5033646;28;20025;-78
2022/10/25 07:09:15;;;;;;;12.20;2.75;;;12.70;99.90;;;;;;5034214;28;20028;-77
2022/10/25 07:11:41;;;;;;;12.63;3.17;;;12.70;99.90;;;;;;5038899;28;20017;-78
2022/10/25 07:14:08;;;;;;;15.43;3.33;;;13.30;99.90;;;;;;5033738;28;20063;-78
2022/10/25 07:16:34;;;;;;;11.65;2.72;;;13.80;99.90;;;;;;5034266;28;20021;-78
2022/10/25 07:19:01;;;;;;;13.95;3.78;;;14.80;99.90;;;;;;5032857;28;20091;-77
2022/10/25 07:21:28;;;;;;;14.65;2.72;;;16.10;99.90;;;;;;5033084;28;20025;-78
2022/10/25 07:23:53;;;;;;;12.70;3.47;;;17.00;99.90;;;;;;5033540;28;20033;-78
2022/10/25 07:26:24;;;;;;;11.40;2.83;;;17.90;99.90;;;;;;5034583;28;20018;-78
2022/10/25 07:28:52;;;;;;;9.25;3.13;;;18.60;99.90;;;;;;5034131;28;20021;-78
2022/10/25 07:31:20;;;;;;;12.20;3.08;;;19.30;99.90;;;;;;5032160;28;20029;-78
2022/10/25 07:33:48;;;;;;;11.13;2.80;;;19.20;99.90;;;;;;5034698;28;20026;-78
2022/10/25 07:36:13;;;;;;;7.20;2.88;;;19.90;99.90;;;;;;5029777;28;20452;-77
2022/10/25 07:38:39;;;;;;;9.73;3.08;;;20.50;99.90;;;;;;5034592;28;20022;-78
2022/10/25 07:41:05;;;;;;;10.73;2.70;;;21.40;97.70;;;;;;5021953;28;20026;-77
2022/10/25 07:43:31;;;;;;;15.30;3.15;;;22.10;96.90;;;;;;5023858;28;20092;-78
2022/10/25 07:45:57;;;;;;;9.55;2.97;;;22.80;93.90;;;;;;5035168;28;20029;-77
2022/10/25 07:48:22;;;;;;;11.02;2.90;;;23.60;91.60;;;;;;5035295;28;20031;-78
2022/10/25 07:50:48;;;;;;;11.50;2.67;;;24.20;83.20;;;;;;5035306;28;20109;-78
2022/10/25 07:53:14;;;;;;;11.07;2.60;;;24.40;59.40;;;;;;5032103;28;20445;-78
2022/10/25 07:55:39;;;;;;;9.35;2.28;;;23.20;60.00;;;;;;5032782;28;20507;-78
2022/10/25 07:58:08;;;;;;;10.25;2.90;;;23.50;59.00;;;;;;5033852;28;20022;-78
2022/10/25 08:00:35;;;;;;;8.73;2.55;;;23.10;49.30;;;;;;5035691;28;20029;-78
2022/10/25 08:03:01;;;;;;;8.32;2.65;;;24.50;52.10;;;;;;5032679;28;20052;-78
2022/10/25 08:05:26;;;;;;;7.85;2.50;;;24.70;41.90;;;;;;5032304;28;20021;-78
2022/10/25 08:07:52;;;;;;;12.20;2.85;;;26.30;24.00;;;;;;5033157;28;20045;-78
2022/10/25 08:10:20;;;;;;;9.65;2.70;;;27.60;22.30;;;;;;5032575;28;20061;-78
2022/10/25 08:12:47;;;;;;;8.35;2.42;;;28.70;7.70;;;;;;5031436;28;20028;-78
2022/10/25 08:15:13;;;;;;;8.52;2.53;;;29.80;1.00;;;;;;5032879;28;20029;-78
2022/10/25 08:17:38;;;;;;;11.32;2.33;;;31.30;1.00;;;;;;5035263;28;20083;-78
2022/10/25 08:20:05;;;;;;;14.88;3.35;;;32.60;1.00;;;;;;5032617;28;20488;-78
2022/10/25 08:22:30;;;;;;;11.27;2.58;;;33.50;1.00;;;;;;5031640;28;20560;-78
2022/10/25 08:24:56;;;;;;;8.00;2.20;;;33.90;1.00;;;;;;5032540;28;20113;-78
2022/10/25 08:27:21;;;;;;;6.63;2.65;;;33.90;1.00;;;;;;5032464;28;20129;-78
2022/10/25 08:29:47;;;;;;;8.90;2.30;;;34.10;1.00;;;;;;5036403;28;20029;-78
2022/10/25 08:32:13;;;;;;;9.73;2.28;;;34.70;1.00;;;;;;5041318;28;20056;-78
2022/10/25 08:34:38;;;;;;;7.40;2.40;;;34.10;1.00;;;;;;5037351;28;20050;-78
2022/10/25 08:37:04;;;;;;;5.93;1.67;;;34.20;1.00;;;;;;5034155;28;20036;-78
2022/10/25 08:39:30;;;;;;;10.85;2.05;;;34.10;1.00;;;;;;5038351;28;20473;-78
2022/10/25 08:41:58;;;;;;;6.70;1.70;;;34.50;1.00;;;;;;5032986;28;20034;-78
2022/10/25 08:44:42;;;;;;;8.43;2.00;;;34.10;1.00;;;;;;5032249;28;20037;-78
2022/10/25 08:47:26;;;;;;;9.70;2.30;;;33.20;1.00;;;;;;5040248;28;20033;-78
2022/10/25 08:50:00;;;;;;;5.90;2.30;;;31.80;1.00;;;;;;5027100;28;20017;-78
2022/10/25 08:52:39;;;;;;;10.88;2.70;;;26.90;1.00;;;;;;5040086;28;20025;-78
2022/10/25 08:55:13;;;;;;;8.02;1.90;;;24.10;1.00;;;;;;5030408;28;20137;-78
2022/10/25 08:57:45;;;;;;;8.32;2.05;;;22.90;1.00;;;;;;5033462;28;20029;-78
2022/10/25 09:00:16;;;;;;;10.32;1.98;;;22.00;1.00;;;;;;5031525;28;20026;-78
2022/10/25 09:02:52;;;;;;;10.65;1.90;;;20.90;1.00;;;;;;5028304;28;20025;-78
2022/10/25 09:05:28;;;;;;;8.93;1.80;;;20.20;1.00;;;;;;5027666;28;20121;-78
2022/10/25 09:08:22;;;;;;;8.10;1.75;;;19.70;1.00;;;;;;5033397;28;20025;-78
2022/10/25 09:11:19;;;;;;;10.07;1.90;;;19.30;1.00;;;;;;5033320;28;20404;-78
2022/10/25 09:13:51;;;;;;;9.10;1.80;;;19.00;1.00;;;;;;5030831;28;20091;-78
2022/10/25 09:16:22;;;;;;;8.10;1.73;;;18.80;1.00;;;;;;5036809;28;20059;-78
2022/10/25 09:18:53;;;;;;;8.90;1.73;;;18.80;1.00;;;;;;5031667;28;20041;-78
2022/10/25 09:21:25;;;;;;;7.90;1.63;;;18.60;1.00;;;;;;5019799;28;20013;-78
2022/10/25 09:24:04;;;;;;;5.78;1.48;;;18.00;1.00;;;;;;5027139;28;20044;-78
2022/10/25 09:26:36;;;;;;;8.55;1.70;;;17.70;1.00;;;;;;5025958;28;20030;-78
2022/10/25 09:29:11;;;;;;;11.38;1.40;;;17.60;1.00;;;;;;5037227;28;20029;-78
2022/10/25 09:31:42;;;;;;;8.20;1.63;;;17.60;1.00;;;;;;5027610;28;20021;-77
2022/10/25 09:34:10;;;;;;;8.90;1.58;;;17.30;1.00;;;;;;5027278;28;20024;-77
2022/10/25 09:36:46;;;;;;;6.05;1.55;;;17.10;1.00;;;;;;5028008;28;20049;-78
2022/10/25 09:39:40;;;;;;;10.13;1.63;;;16.90;5.40;;;;;;5037925;28;20108;-78
2022/10/25 09:42:32;;;;;;;8.52;1.58;;;16.90;8.50;;;;;;5031509;28;20041;-77
2022/10/25 09:45:22;;;;;;;10.30;1.25;;;16.80;10.40;;;;;;5031186;28;20517;-77
2022/10/25 09:48:05;;;;;;;;;;;16.70;11.80;;;;;;5031777;28;20022;-78
2022/10/25 09:50:40;;;;;;;8.18;1.20;;;16.60;15.60;;;;;;5030686;28;19908;-77
2022/10/25 09:53:14;;;;;;;10.00;1.40;;;16.70;18.10;;;;;;5032829;28;20369;-77
2022/10/25 09:55:56;;;;;;;9.88;1.50;;;16.90;17.70;;;;;;5032246;28;20021;-77
2022/10/25 09:58:27;;;;;;;9.45;1.40;;;17.30;11.20;;;;;;5030836;28;20091;-77
2022/10/25 10:00:57;;;;;;;10.25;1.58;;;17.40;11.30;;;;;;5031611;28;20108;-77
2022/10/25 10:03:27;;;;;;;;;;;17.30;9.20;;;;;;5031204;28;20040;-77
2022/10/25 10:05:56;;;;;;;6.50;1.40;;;17.40;12.60;;;;;;5030041;28;20411;-77
2022/10/25 10:08:23;;;;;;;9.70;1.00;;;17.10;14.20;;;;;;5031153;28;20112;-77
2022/10/25 10:10:51;;;;;;;9.27;1.60;;;16.90;16.00;;;;;;5031468;28;20033;-77
2022/10/25 10:13:19;;;;;;;5.55;1.15;;;16.90;12.90;;;;;;5032016;28;20463;-77
2022/10/25 10:15:58;;;;;;;8.05;1.42;;;16.90;18.00;;;;;;5037115;28;20018;-77
2022/10/25 10:18:28;;;;;;;7.53;1.05;;;17.00;17.70;;;;;;5031300;28;20025;-77
2022/10/25 10:21:01;;;;;;;;;;;17.30;14.30;;;;;;5030541;28;20026;-77
2022/10/25 10:23:30;;;;;;;8.82;1.10;;;17.30;10.80;;;;;;5028833;28;20004;-77
2022/10/25 10:26:01;;;;;;;10.85;1.70;;;17.70;14.70;;;;;;5027100;28;20018;-78
2022/10/25 10:28:27;;;;;;;6.95;1.17;;;17.90;10.70;;;;;;5027859;28;20041;-77
2022/10/25 10:30:55;;;;;;;9.73;1.13;;;18.30;11.10;;;;;;5031889;28;20021;-77
2022/10/25 10:33:22;;;;;;;8.02;1.20;;;18.70;11.40;;;;;;5029426;28;20025;-77
2022/10/25 10:35:51;;;;;;;6.60;1.17;;;18.30;7.20;;;;;;5034464;28;20049;-78
2022/10/25 10:38:27;;;;;;;5.35;1.17;;;18.40;8.50;;;;;;5034380;28;20424;-77
2022/10/25 10:41:26;;;;;;;5.05;1.00;;;18.60;9.00;;;;;;5031626;28;20497;-77
2022/10/25 10:44:07;;;;;;;3.92;1.05;;;18.50;2.90;;;;;;5032120;28;20026;-77
2022/10/25 10:46:33;;;;;;;11.00;1.10;;;18.50;5.20;;;;;;5032426;28;20362;-77
2022/10/25 10:49:01;;;;;;;6.38;1.20;;;18.80;6.50;;;;;;5035605;28;20108;-77
2022/10/25 10:51:43;;;;;;;3.80;1.20;;;19.00;4.30;;;;;;5034965;28;20014;-78
2022/10/25 10:54:20;;;;;;;7.53;0.98;;;19.00;3.00;;;;;;5027219;28;20113;-77
2022/10/25 10:56:54;;;;;;;7.82;1.13;;;19.00;7.00;;;;;;5029400;28;20374;-77
2022/10/25 10:59:54;;;;;;;10.32;1.20;;;19.40;3.00;;;;;;5035340;28;20033;-77
2022/10/25 11:02:25;;;;;;;;;;;19.00;1.00;;;;;;5035594;28;20021;-77
2022/10/25 11:04:53;;;;;;;7.15;1.35;;;18.70;1.00;;;;;;5035436;28;19917;-77
2022/10/25 11:07:33;;;;;;;4.78;0.75;;;18.70;1.00;;;;;;5034921;28;20032;-77
2022/10/25 11:10:21;;;;;;;7.17;0.87;;;18.90;6.20;;;;;;5035517;28;20068;-77
2022/10/25 11:13:07;;;;;;;5.05;0.95;;;18.90;1.00;;;;;;5029141;28;20042;-77
2022/10/25 11:15:41;;;;;;;2.85;0.80;;;18.80;1.00;;;;;;5027818;28;20086;-77
2022/10/25 11:18:08;;;;;;;8.50;0.90;;;19.00;2.30;;;;;;5035669;28;20053;-77
2022/10/25 11:20:35;;;;;;;5.68;1.02;;;18.50;1.00;;;;;;5035738;28;20046;-77
2022/10/25 11:23:22;;;;;;;6.85;1.13;;;18.30;1.00;;;;;;5052361;28;20069;-77
2022/10/25 11:26:02;;;;;;;7.15;0.80;;;18.70;5.00;;;;;;5031693;28;20102;-77
2022/10/25 11:28:57;;;;;;;5.78;0.90;;;19.20;1.00;;;;;;5024574;28;20025;-77
2022/10/25 11:31:57;;;;;;;5.45;1.10;;;19.50;1.30;;;;;;5023421;28;20113;-77
2022/10/25 11:34:47;;;;;;;6.40;1.10;;;19.50;1.00;;;;;;5036743;28;20057;-77
2022/10/25 11:37:31;;;;;;;;;;;19.50;1.00;;;;;;5033943;28;20544;-77
2022/10/25 11:40:17;;;;;;;9.38;0.88;;;19.40;1.00;;;;;;5028063;28;19949;-78
2022/10/25 11:43:17;;;;;;;4.80;0.73;;;19.30;1.00;;;;;;5026517;28;20049;-78
2022/10/25 11:45:45;;;;;;;5.47;1.08;;;19.60;1.00;;;;;;5020044;28;20042;-77
2022/10/25 11:48:20;;;;;;;4.97;1.00;;;20.00;1.00;;;;;;5033598;28;20026;-77
2022/10/25 11:51:00;;;;;;;7.40;0.98;;;19.90;1.00;;;;;;5028836;28;20469;-77
2022/10/25 11:53:40;;;;;;;7.28;1.00;;;19.80;1.00;;;;;;5027679;28;20026;-77
2022/10/25 11:56:23;;;;;;;5.00;0.93;;;19.30;1.00;;;;;;5034219;28;20477;-77
2022/10/25 11:59:07;;;;;;;6.85;1.10;;;19.40;1.00;;;;;;5033101;28;20040;-78
2022/10/25 12:01:52;;;;;;;6.43;0.85;;;19.50;1.00;;;;;;5035496;28;20029;-77
2022/10/25 12:04:40;;;;;;;6.55;0.82;;;19.30;1.00;;;;;;5033687;28;20030;-77
2022/10/25 12:07:12;;;;;;;6.00;1.00;;;19.30;1.00;;;;;;5025715;28;20041;-78
2022/10/25 12:09:57;;;;;;;7.75;0.98;;;19.50;1.00;;;;;;5036661;28;20025;-77
2022/10/25 12:12:31;;;;;;;9.70;0.93;;;19.90;1.00;;;;;;5039945;28;20560;-77
2022/10/25 12:14:59;;;;;;;8.63;1.30;;;19.70;1.00;;;;;;5028749;28;20076;-77
2022/10/25 12:17:28;;;;;;;6.03;0.90;;;19.80;1.00;;;;;;5033667;28;20053;-77
2022/10/25 12:19:57;;;;;;;5.93;0.95;;;19.30;1.00;;;;;;5032470;28;20057;-77
2022/10/25 12:22:44;;;;;;;7.38;0.90;;;19.40;1.00;;;;;;5032606;28;20167;-77
2022/10/25 12:25:34;;;;;;;8.05;1.08;;;19.50;1.00;;;;;;5032422;28;20034;-77
2022/10/25 12:28:20;;;;;;;;;;;19.50;1.00;;;;;;5037287;28;20033;-77
2022/10/25 12:30:47;;;;;;;8.35;0.82;;;19.40;1.00;;;;;;5033377;28;19917;-77
2022/10/25 12:33:32;;;;;;;6.70;1.10;;;19.10;1.00;;;;;;5032458;28;20030;-77
2022/10/25 12:36:02;;;;;;;5.18;0.70;;;18.60;1.00;;;;;;5032298;28;20053;-77
2022/10/25 12:38:33;;;;;;;3.33;0.80;;;18.40;1.00;;;;;;5032378;28;20465;-77
2022/10/25 12:41:07;;;;;;;10.32;1.15;;;18.80;1.00;;;;;;5033211;28;20059;-77
2022/10/25 12:43:53;;;;;;;4.53;1.00;;;18.90;1.00;;;;;;5032372;28;20034;-77
2022/10/25 12:46:34;;;;;;;9.18;1.30;;;18.70;1.00;;;;;;5032765;28;20033;-78
2022/10/25 12:49:14;;;;;;;5.82;0.93;;;18.80;1.00;;;;;;5032567;28;20091;-77
2022/10/25 12:52:21;;;;;;;6.22;1.25;;;18.80;1.00;;;;;;5028193;28;20382;-77
2022/10/25 12:54:55;;;;;;;5.25;0.90;;;18.90;1.00;;;;;;5021163;28;20093;-77
2022/10/25 12:57:55;;;;;;;5.25;1.00;;;18.80;1.00;;;;;;5024992;28;20087;-77
2022/10/25 13:00:22;;;;;;;3.78;0.73;;;18.60;1.00;;;;;;5042290;28;20477;-77
2022/10/25 13:03:03;;;;;;;4.65;0.95;;;18.60;1.00;;;;;;5032720;28;20025;-78
2022/10/25 13:05:56;;;;;;;7.05;1.00;;;18.70;1.00;;;;;;5029488;28;20029;-77
2022/10/25 13:08:24;;;;;;;5.65;1.00;;;18.80;1.00;;;;;;5031568;28;20506;-77